createdAt,value
2023-05-10T03:42:42.649Z,13.00
2023-05-10T05:05:58.921Z,12.40
2023-05-10T05:11:00.842Z,12.50
2023-05-10T05:16:03.754Z,12.50
2023-05-10T05:21:16.081Z,12.50
2023-05-10T05:26:18.004Z,12.50
2023-05-10T05:31:20.098Z,12.50
2023-05-10T05:36:22.486Z,12.60
2023-05-10T05:41:25.603Z,12.60
2023-05-10T05:46:27.463Z,12.70
2023-05-10T05:51:29.441Z,12.70
2023-05-10T05:56:31.384Z,12.70
2023-05-10T06:01:33.278Z,12.80
2023-05-10T06:06:35.236Z,12.80
2023-05-10T06:11:37.558Z,12.90
2023-05-10T06:16:39.478Z,12.90
2023-05-10T06:21:41.375Z,13.00
2023-05-10T06:26:43.210Z,13.00
2023-05-10T06:31:45.198Z,13.00
2023-05-10T06:36:47.154Z,13.00
2023-05-10T06:41:49.250Z,13.00
2023-05-10T06:46:51.199Z,12.90
2023-05-10T06:51:53.113Z,12.90
2023-05-10T06:56:57.607Z,12.90
2023-05-10T07:01:59.764Z,12.80
2023-05-10T07:07:01.848Z,12.90
2023-05-10T07:12:03.964Z,12.90
2023-05-10T07:17:05.922Z,12.90
2023-05-10T07:22:07.869Z,12.90
2023-05-10T07:27:10.241Z,12.90
2023-05-10T07:32:12.169Z,12.90
2023-05-10T07:37:14.069Z,13.10
2023-05-10T07:42:15.899Z,13.20
2023-05-10T07:47:17.783Z,13.30
2023-05-10T07:52:22.391Z,13.50
2023-05-10T07:57:24.610Z,13.60
2023-05-10T08:02:26.500Z,13.80
2023-05-10T08:07:28.509Z,14.00
2023-05-10T08:12:30.375Z,14.10
2023-05-10T08:17:32.280Z,14.30
2023-05-10T08:22:34.146Z,14.30
2023-05-10T08:27:35.992Z,14.40
2023-05-10T08:32:39.096Z,14.60
2023-05-10T08:37:41.094Z,14.70
2023-05-10T08:42:49.211Z,14.80
2023-05-10T08:47:52.084Z,14.90
2023-05-10T08:52:56.755Z,15.00
2023-05-10T08:57:58.775Z,15.10
2023-05-10T09:03:01.632Z,15.10
2023-05-10T09:08:03.685Z,15.20
2023-05-10T09:13:05.835Z,15.40
2023-05-10T09:18:07.800Z,15.50
2023-05-10T09:23:09.726Z,15.60
2023-05-10T09:28:12.356Z,15.50
2023-05-10T09:33:14.294Z,15.50
2023-05-10T09:38:18.759Z,15.50
2023-05-10T09:43:21.317Z,15.50
2023-05-10T09:48:25.126Z,15.50
2023-05-10T09:53:27.518Z,15.50
2023-05-10T09:58:29.376Z,15.50
2023-05-10T10:03:31.308Z,15.60
2023-05-10T10:08:33.257Z,15.50
2023-05-10T10:13:35.506Z,15.50
2023-05-10T10:18:41.002Z,15.60
2023-05-10T10:23:42.927Z,15.60
2023-05-10T10:29:01.354Z,15.80
2023-05-10T10:34:17.654Z,15.90
2023-05-10T10:39:19.900Z,16.00
2023-05-10T10:44:27.692Z,16.00
2023-05-10T10:49:38.528Z,16.00
2023-05-10T10:54:40.410Z,16.10
2023-05-10T10:59:46.383Z,16.20
2023-05-10T11:04:48.330Z,16.30
2023-05-10T11:09:50.374Z,16.40
2023-05-10T11:14:52.640Z,16.50
2023-05-10T11:20:15.918Z,16.70
2023-05-10T11:25:18.486Z,16.90
2023-05-10T11:30:20.537Z,17.00
2023-05-10T11:35:22.704Z,17.10
2023-05-10T11:40:27.513Z,17.20
2023-05-10T11:45:30.492Z,17.20
2023-05-10T11:50:32.524Z,17.00
2023-05-10T11:55:34.861Z,16.90
2023-05-10T12:00:36.745Z,16.80
2023-05-10T12:05:39.716Z,16.60
2023-05-10T12:10:42.900Z,16.50
2023-05-10T12:15:44.867Z,16.50
2023-05-10T12:20:46.724Z,16.40
2023-05-10T12:25:48.643Z,16.40
2023-05-10T12:30:54.412Z,16.40
2023-05-10T12:36:00.386Z,16.40
2023-05-10T12:41:04.548Z,16.60
2023-05-10T12:46:11.435Z,16.70
2023-05-10T12:51:16.331Z,16.90
2023-05-10T12:56:18.220Z,17.10
2023-05-10T13:01:20.286Z,16.90
2023-05-10T13:06:22.253Z,16.70
2023-05-10T13:11:24.493Z,16.40
2023-05-10T13:16:26.518Z,16.30
2023-05-10T13:21:28.931Z,16.20
2023-05-10T13:26:30.922Z,16.10
2023-05-10T13:31:32.902Z,16.20
2023-05-10T13:36:34.859Z,16.40
2023-05-10T13:41:37.767Z,16.40
2023-05-10T13:46:39.706Z,16.50
2023-05-10T13:51:41.635Z,16.40
2023-05-10T13:56:43.525Z,16.20
2023-05-10T14:01:45.643Z,16.20
2023-05-10T14:06:47.747Z,16.10
2023-05-10T14:11:49.679Z,16.10
2023-05-10T14:16:51.536Z,16.00
2023-05-10T14:21:53.561Z,15.90
2023-05-10T14:26:55.412Z,15.80
2023-05-10T14:31:57.326Z,15.80
2023-05-10T14:36:59.484Z,15.80
2023-05-10T14:42:01.505Z,15.90
2023-05-10T14:47:03.438Z,15.90
2023-05-10T14:52:05.443Z,15.90
2023-05-10T14:57:07.999Z,15.90
2023-05-10T15:02:10.817Z,15.80
2023-05-10T15:07:15.448Z,15.80
2023-05-10T15:12:17.324Z,15.80
2023-05-10T15:17:19.188Z,15.70
2023-05-10T15:22:22.178Z,15.70
2023-05-10T15:27:24.170Z,15.70
2023-05-10T15:32:26.274Z,15.60
2023-05-10T15:37:28.555Z,15.60
2023-05-10T15:42:33.995Z,15.50
2023-05-10T15:47:35.901Z,15.40
2023-05-10T15:52:38.139Z,15.20
2023-05-10T15:57:41.410Z,15.10
2023-05-10T16:02:43.626Z,15.00
2023-05-10T16:07:46.922Z,15.00
2023-05-10T16:12:49.098Z,14.90
2023-05-10T16:17:51.300Z,14.80
2023-05-10T16:22:53.396Z,14.70
2023-05-10T16:27:55.568Z,14.70
2023-05-10T16:32:58.499Z,14.70
2023-05-10T16:38:00.383Z,14.70
2023-05-10T16:43:02.280Z,14.70
2023-05-10T16:48:06.189Z,14.60
2023-05-10T16:53:08.774Z,14.60
2023-05-10T16:58:10.917Z,14.60
2023-05-10T17:03:13.140Z,14.50
2023-05-10T17:08:15.108Z,14.60
2023-05-10T17:13:17.371Z,14.90
2023-05-10T17:18:19.797Z,15.20
2023-05-10T17:23:21.780Z,15.30
2023-05-10T17:28:23.734Z,15.50
2023-05-10T17:33:26.104Z,15.50
2023-05-10T17:38:28.293Z,15.40
2023-05-10T17:43:30.180Z,15.40
2023-05-10T17:48:32.217Z,15.30
2023-05-10T17:53:35.156Z,15.30
2023-05-10T17:58:38.437Z,15.20
2023-05-10T18:03:40.405Z,15.20
2023-05-10T18:08:43.496Z,15.10
2023-05-10T18:13:50.712Z,15.00
2023-05-10T18:18:52.911Z,15.00
2023-05-10T18:23:54.859Z,15.00
2023-05-10T18:28:58.082Z,14.90
2023-05-10T18:34:01.340Z,14.80
2023-05-10T18:39:03.697Z,14.70
2023-05-10T18:44:05.698Z,14.70
2023-05-10T18:49:08.540Z,14.70
2023-05-10T18:54:12.563Z,14.60
2023-05-10T18:59:14.516Z,14.60
2023-05-10T19:04:16.470Z,14.50
2023-05-10T19:09:20.221Z,14.40
2023-05-10T19:14:22.583Z,14.40
2023-05-10T19:19:25.371Z,14.30
2023-05-10T19:24:27.353Z,14.20
2023-05-10T19:29:29.559Z,14.20
2023-05-10T19:34:31.698Z,14.10
2023-05-10T19:39:33.853Z,14.00
2023-05-10T19:44:35.783Z,14.00
2023-05-10T20:07:22.978Z,13.80
